createdAt,value
2022-11-09T00:00:51.853Z,22.10
2022-11-09T00:03:21.503Z,21.90
2022-11-09T00:05:56.864Z,23.17
2022-11-09T00:08:24.864Z,21.23
2022-11-09T00:10:52.800Z,20.40
2022-11-09T00:13:21.046Z,21.30
2022-11-09T00:15:49.229Z,20.20
2022-11-09T00:18:17.129Z,19.87
2022-11-09T00:20:48.199Z,19.37
2022-11-09T00:23:17.057Z,19.80
2022-11-09T00:25:45.331Z,21.03
2022-11-09T00:28:13.240Z,18.47
2022-11-09T00:30:41.660Z,18.00
2022-11-09T00:33:11.194Z,17.93
2022-11-09T00:35:39.768Z,19.90
2022-11-09T00:38:09.069Z,17.67
2022-11-09T00:40:36.996Z,17.50
2022-11-09T00:43:04.890Z,18.50
2022-11-09T00:45:32.783Z,17.13
2022-11-09T00:48:00.675Z,18.27
2022-11-09T00:50:28.652Z,18.10
2022-11-09T00:52:56.584Z,20.77
2022-11-09T00:55:25.852Z,18.83
2022-11-09T00:57:54.224Z,21.20
2022-11-09T01:00:23.625Z,23.03
2022-11-09T01:02:51.846Z,22.77
2022-11-09T01:05:19.978Z,20.13
2022-11-09T01:07:47.860Z,20.40
2022-11-09T01:10:15.747Z,18.73
2022-11-09T01:12:44.976Z,19.07
2022-11-09T01:15:12.927Z,19.87
2022-11-09T01:17:40.849Z,20.00
2022-11-09T01:20:09.667Z,18.60
2022-11-09T01:22:37.538Z,18.33
2022-11-09T01:25:06.128Z,20.60
2022-11-09T01:27:34.283Z,26.27
2022-11-09T01:30:03.599Z,22.50
2022-11-09T01:32:33.468Z,20.50
2022-11-09T01:35:01.368Z,21.73
2022-11-09T01:37:29.309Z,19.40
2022-11-09T01:39:57.214Z,21.80
2022-11-09T01:42:25.790Z,23.93
2022-11-09T01:45:26.656Z,25.57
2022-11-09T01:48:01.098Z,20.37
2022-11-09T01:50:35.551Z,21.27
2022-11-09T01:53:06.814Z,21.27
2022-11-09T01:55:35.152Z,19.30
2022-11-09T01:58:06.778Z,19.97
2022-11-09T02:00:39.002Z,17.20
2022-11-09T02:03:11.043Z,16.73
2022-11-09T02:05:41.588Z,18.30
2022-11-09T02:08:11.077Z,16.90
2022-11-09T02:10:44.619Z,18.37
2022-11-09T02:13:15.766Z,20.23
2022-11-09T02:15:46.048Z,21.80
2022-11-09T02:18:14.835Z,33.03
2022-11-09T02:20:48.319Z,26.53
2022-11-09T02:23:16.493Z,31.70
2022-11-09T02:25:49.458Z,26.17
2022-11-09T02:28:18.385Z,22.93
2022-11-09T02:30:50.929Z,25.80
2022-11-09T02:33:19.047Z,26.67
2022-11-09T02:35:48.609Z,21.23
2022-11-09T02:38:16.837Z,19.77
2022-11-09T02:40:49.153Z,20.57
2022-11-09T02:43:19.259Z,23.43
2022-11-09T02:45:47.340Z,18.63
2022-11-09T02:48:15.310Z,26.27
2022-11-09T02:50:43.206Z,20.23
2022-11-09T02:53:12.454Z,21.17
2022-11-09T02:55:40.530Z,21.70
2022-11-09T02:58:08.545Z,18.47
2022-11-09T03:00:36.430Z,18.77
2022-11-09T03:03:05.093Z,18.37
2022-11-09T03:05:33.049Z,18.20
2022-11-09T03:08:02.554Z,17.43
2022-11-09T03:10:31.987Z,16.23
2022-11-09T03:12:59.881Z,16.97
2022-11-09T03:15:27.793Z,16.30
2022-11-09T03:17:56.076Z,16.63
2022-11-09T03:20:23.987Z,16.07
2022-11-09T03:22:51.916Z,16.00
2022-11-09T03:25:19.809Z,16.03
2022-11-09T03:27:49.052Z,16.83
2022-11-09T03:30:19.054Z,16.67
2022-11-09T03:32:50.574Z,15.37
2022-11-09T03:35:18.917Z,14.97
2022-11-09T03:37:46.865Z,16.13
2022-11-09T03:40:14.776Z,17.63
2022-11-09T03:42:45.973Z,18.67
2022-11-09T03:45:16.341Z,16.97
2022-11-09T03:47:44.810Z,16.93
2022-11-09T03:50:14.144Z,15.10
2022-11-09T03:52:44.830Z,18.00
2022-11-09T03:55:12.847Z,16.47
2022-11-09T03:57:40.837Z,15.43
2022-11-09T04:00:10.002Z,16.07
2022-11-09T04:02:39.416Z,15.17
2022-11-09T04:05:08.621Z,15.20
2022-11-09T04:07:36.525Z,15.00
2022-11-09T04:10:04.896Z,16.30
2022-11-09T04:12:32.908Z,15.07
2022-11-09T04:15:00.861Z,15.43
2022-11-09T04:17:28.789Z,14.97
2022-11-09T04:19:58.072Z,15.03
2022-11-09T04:22:26.028Z,15.67
2022-11-09T04:24:53.900Z,14.63
2022-11-09T04:27:22.337Z,18.07
2022-11-09T04:29:50.229Z,18.37
2022-11-09T04:32:18.124Z,16.20
2022-11-09T04:34:46.058Z,15.60
2022-11-09T04:37:15.301Z,15.67
2022-11-09T04:39:43.177Z,16.77
2022-11-09T04:42:11.078Z,15.60
2022-11-09T04:44:38.936Z,15.60
2022-11-09T04:47:06.866Z,14.07
2022-11-09T04:49:34.748Z,15.07
2022-11-09T04:52:02.672Z,14.53
2022-11-09T04:54:31.901Z,14.27
2022-11-09T04:56:59.800Z,14.13
2022-11-09T04:59:28.915Z,16.10
2022-11-09T05:01:56.896Z,17.57
2022-11-09T05:04:24.872Z,16.70
2022-11-09T05:06:52.770Z,17.53
2022-11-09T05:09:20.668Z,16.07
2022-11-09T05:11:52.264Z,17.50
2022-11-09T05:14:20.153Z,16.63
2022-11-09T05:16:48.046Z,16.70
2022-11-09T05:19:16.220Z,16.13
2022-11-09T05:21:44.156Z,14.30
2022-11-09T05:24:11.081Z,18.57
2022-11-09T05:26:40.407Z,17.63
2022-11-09T05:29:11.870Z,16.03
2022-11-09T05:54:47.062Z,16.50
2022-11-09T05:57:15.192Z,16.40
2022-11-09T05:59:43.296Z,19.23
2022-11-09T06:02:11.419Z,17.97
2022-11-09T06:04:39.575Z,16.53
2022-11-09T06:07:07.840Z,15.90
2022-11-09T06:09:35.997Z,15.47
2022-11-09T06:12:05.947Z,14.90
2022-11-09T06:14:34.120Z,14.60
2022-11-09T06:17:02.221Z,14.90
2022-11-09T06:19:30.331Z,15.03
2022-11-09T06:21:58.448Z,14.57
2022-11-09T06:24:26.571Z,13.70
2022-11-09T06:26:54.695Z,14.80
2022-11-09T06:29:24.222Z,13.73
2022-11-09T06:31:52.475Z,13.83
2022-11-09T06:34:20.598Z,13.77
2022-11-09T06:36:48.763Z,13.67
2022-11-09T06:39:16.863Z,14.50
2022-11-09T06:41:47.606Z,13.80
2022-11-09T06:44:16.321Z,13.87
2022-11-09T06:46:45.843Z,14.83
2022-11-09T06:49:13.978Z,13.67
2022-11-09T06:51:42.123Z,15.03
2022-11-09T06:54:10.308Z,14.73
2022-11-09T06:56:38.427Z,14.27
2022-11-09T06:59:06.531Z,14.27
2022-11-09T07:01:34.713Z,14.07
2022-11-09T07:04:04.415Z,15.13
2022-11-09T07:06:32.563Z,14.23
2022-11-09T07:09:00.740Z,14.77
2022-11-09T07:11:29.002Z,14.57
2022-11-09T07:13:57.797Z,14.20
2022-11-09T07:16:26.070Z,13.43
2022-11-09T07:18:54.171Z,14.53
2022-11-09T07:21:23.689Z,14.23
2022-11-09T07:23:52.022Z,13.97
2022-11-09T07:26:20.161Z,15.33
2022-11-09T07:28:48.282Z,14.73
2022-11-09T07:31:16.452Z,14.30
2022-11-09T07:33:44.576Z,17.00
2022-11-09T07:36:16.869Z,16.03
2022-11-09T07:38:49.384Z,15.23
2022-11-09T07:41:17.500Z,16.17
2022-11-09T07:43:45.578Z,15.20
2022-11-09T07:46:13.671Z,13.80
2022-11-09T07:48:41.805Z,13.90
2022-11-09T07:51:10.703Z,16.50
2022-11-09T07:53:39.501Z,14.23
2022-11-09T07:56:09.673Z,14.77
2022-11-09T07:58:37.806Z,15.93
2022-11-09T08:01:08.846Z,15.93
2022-11-09T08:03:37.169Z,16.73
2022-11-09T08:06:05.559Z,15.93
2022-11-09T08:08:33.665Z,15.17
2022-11-09T08:11:01.813Z,14.57
2022-11-09T08:13:31.273Z,13.30
2022-11-09T08:16:02.883Z,13.70
2022-11-09T08:18:31.070Z,16.30
2022-11-09T08:21:02.325Z,19.67
2022-11-09T08:23:30.693Z,23.63
2022-11-09T08:25:58.812Z,22.70
2022-11-09T08:28:26.899Z,21.13
2022-11-09T08:31:00.767Z,19.27
2022-11-09T08:33:30.927Z,17.23
2022-11-09T08:35:59.039Z,15.50
2022-11-09T08:38:27.179Z,15.13
2022-11-09T08:40:58.881Z,15.40
2022-11-09T08:43:27.454Z,14.73
2022-11-09T08:45:55.862Z,15.63
2022-11-09T08:48:25.379Z,16.70
2022-11-09T08:50:54.500Z,17.60
2022-11-09T08:53:23.215Z,18.13
2022-11-09T08:55:51.533Z,18.00
2022-11-09T08:58:20.360Z,17.30
2022-11-09T09:00:48.823Z,16.80
2022-11-09T09:03:16.946Z,17.77
2022-11-09T09:05:46.655Z,18.67
2022-11-09T09:08:15.747Z,19.53
2022-11-09T09:10:44.331Z,17.93
2022-11-09T09:13:12.434Z,18.47
2022-11-09T09:15:41.272Z,18.13
2022-11-09T09:18:09.401Z,17.30
2022-11-09T09:20:37.499Z,17.53
2022-11-09T09:23:07.079Z,19.50
2022-11-09T09:25:35.221Z,19.17
2022-11-09T09:28:03.411Z,17.97
2022-11-09T09:30:31.535Z,19.67
2022-11-09T09:33:00.742Z,18.47
2022-11-09T09:35:29.668Z,19.23
2022-11-09T09:37:58.456Z,17.13
2022-11-09T09:40:39.395Z,16.00
2022-11-09T09:43:07.791Z,15.63
2022-11-09T09:45:40.344Z,16.63
2022-11-09T09:48:19.375Z,15.67
2022-11-09T09:50:50.719Z,15.43
2022-11-09T09:53:28.115Z,15.40
2022-11-09T09:56:03.705Z,14.53
2022-11-09T09:58:33.775Z,15.30
2022-11-09T10:01:06.898Z,14.73
2022-11-09T10:03:35.211Z,14.10
2022-11-09T10:06:12.691Z,15.53
2022-11-09T10:08:57.248Z,15.80
2022-11-09T10:11:34.979Z,14.37
2022-11-09T10:14:41.603Z,13.73
2022-11-09T10:17:20.667Z,14.50
2022-11-09T10:20:02.707Z,14.00
2022-11-09T10:22:42.475Z,13.67
2022-11-09T10:25:32.202Z,12.77
2022-11-09T10:28:13.023Z,12.30
2022-11-09T10:30:41.846Z,12.53
2022-11-09T10:33:17.129Z,11.57
2022-11-09T10:35:49.980Z,12.13
2022-11-09T10:38:24.226Z,12.77
2022-11-09T10:40:57.042Z,12.43
2022-11-09T10:43:26.531Z,12.00
2022-11-09T10:46:04.865Z,12.27
2022-11-09T10:48:35.822Z,13.73
2022-11-09T10:51:04.394Z,11.33
2022-11-09T10:53:33.983Z,12.10
2022-11-09T10:56:20.280Z,13.23
2022-11-09T10:58:51.962Z,13.27
2022-11-09T11:01:22.900Z,11.90
2022-11-09T11:03:52.743Z,12.20
2022-11-09T11:06:28.331Z,11.77
2022-11-09T11:09:16.569Z,12.67
2022-11-09T11:11:44.685Z,12.07
2022-11-09T11:14:21.675Z,12.23
2022-11-09T11:16:53.302Z,12.13
2022-11-09T11:19:34.205Z,13.17
2022-11-09T11:22:23.156Z,11.13
2022-11-09T11:24:59.670Z,12.00
2022-11-09T11:27:37.326Z,11.27
2022-11-09T11:30:12.740Z,11.20
2022-11-09T11:32:45.438Z,11.60
2022-11-09T11:35:19.938Z,11.63
2022-11-09T11:38:01.679Z,12.30
2022-11-09T11:40:34.087Z,12.80
2022-11-09T11:43:17.286Z,12.00
2022-11-09T11:45:54.354Z,10.67
2022-11-09T11:48:36.659Z,12.40
2022-11-09T11:51:11.091Z,12.40
2022-11-09T11:53:49.055Z,12.20
2022-11-09T11:56:27.407Z,12.53
2022-11-09T11:59:19.682Z,12.63
2022-11-09T12:02:04.390Z,12.50
2022-11-09T12:04:58.531Z,12.60
2022-11-09T12:07:36.226Z,12.53
2022-11-09T12:10:22.711Z,12.27
2022-11-09T12:13:01.536Z,13.27
2022-11-09T12:15:40.791Z,12.60
2022-11-09T12:18:22.434Z,12.03
2022-11-09T12:20:58.563Z,12.23
2022-11-09T12:23:42.710Z,12.53
2022-11-09T12:26:24.023Z,11.57
2022-11-09T12:29:09.006Z,12.70
2022-11-09T12:31:50.595Z,13.00
2022-11-09T12:34:26.031Z,12.30
2022-11-09T12:36:59.222Z,12.37
2022-11-09T12:39:33.838Z,13.53
2022-11-09T12:42:06.942Z,12.40
2022-11-09T12:44:39.243Z,12.80
2022-11-09T12:47:15.450Z,13.17
2022-11-09T12:49:47.455Z,13.17
2022-11-09T12:52:19.482Z,13.57
2022-11-09T12:54:50.114Z,11.60
2022-11-09T12:57:23.968Z,13.43
2022-11-09T12:59:53.850Z,13.10
2022-11-09T13:02:30.375Z,13.57
2022-11-09T13:05:02.394Z,14.73
2022-11-09T13:07:50.650Z,13.00
2022-11-09T13:10:29.826Z,14.07
2022-11-09T13:13:07.290Z,13.57
2022-11-09T13:15:36.307Z,15.63
2022-11-09T13:18:06.954Z,14.33
2022-11-09T13:21:00.295Z,14.33
2022-11-09T13:24:00.124Z,15.03
2022-11-09T13:27:02.557Z,16.10
2022-11-09T13:29:31.691Z,15.23
2022-11-09T13:32:33.450Z,17.67
2022-11-09T13:35:03.619Z,17.03
2022-11-09T13:37:49.526Z,16.13
2022-11-09T13:40:48.294Z,14.40
2022-11-09T13:43:23.403Z,17.17
2022-11-09T13:45:54.581Z,14.90
2022-11-09T13:48:39.474Z,16.23
2022-11-09T13:51:10.926Z,15.07
2022-11-09T13:53:58.185Z,16.37
2022-11-09T13:56:32.846Z,14.87
2022-11-09T13:59:08.708Z,14.30
2022-11-09T14:01:47.264Z,13.83
2022-11-09T14:04:27.201Z,14.03
2022-11-09T14:07:03.588Z,13.10
2022-11-09T14:09:42.534Z,13.27
2022-11-09T14:12:32.016Z,37.23
2022-11-09T14:15:23.742Z,38.40
2022-11-09T14:18:04.242Z,75.90
2022-11-09T14:20:41.868Z,80.90
2022-11-09T14:23:18.085Z,61.37
2022-11-09T14:25:49.234Z,72.27
2022-11-09T14:28:23.657Z,45.27
2022-11-09T14:30:51.781Z,32.83
2022-11-09T14:33:23.726Z,36.13
2022-11-09T14:35:53.537Z,53.40
2022-11-09T14:38:25.885Z,27.07
2022-11-09T14:40:56.177Z,27.67
2022-11-09T14:43:28.740Z,28.10
2022-11-09T14:46:00.177Z,35.57
2022-11-09T14:48:29.890Z,32.53
2022-11-09T14:51:00.444Z,30.43
2022-11-09T14:53:32.048Z,29.60
2022-11-09T14:56:04.411Z,25.07
2022-11-09T14:58:35.185Z,43.13
2022-11-09T15:01:11.800Z,36.80
2022-11-09T15:03:40.046Z,49.90
2022-11-09T15:06:10.214Z,36.03
2022-11-09T15:08:41.231Z,41.17
2022-11-09T15:11:10.816Z,47.77
2022-11-09T15:13:41.643Z,43.33
2022-11-09T15:16:21.106Z,40.90
2022-11-09T15:18:49.851Z,32.07
2022-11-09T15:21:21.394Z,30.63
2022-11-09T15:23:50.886Z,34.00
2022-11-09T15:26:40.255Z,31.53
2022-11-09T15:29:30.764Z,31.23
2022-11-09T15:32:01.004Z,30.93
2022-11-09T15:34:39.315Z,28.70
2022-11-09T15:37:21.763Z,28.00
2022-11-09T15:39:50.328Z,28.53
2022-11-09T15:42:20.312Z,24.33
2022-11-09T15:44:52.691Z,26.20
2022-11-09T15:47:31.627Z,25.90
2022-11-09T15:50:00.199Z,24.50
2022-11-09T15:52:28.953Z,22.87
2022-11-09T15:54:57.114Z,22.07
2022-11-09T15:57:26.590Z,22.70
2022-11-09T15:59:54.720Z,23.17
2022-11-09T16:02:22.813Z,21.50
2022-11-09T16:04:50.927Z,32.30
2022-11-09T16:07:19.124Z,29.70
2022-11-09T16:09:47.313Z,31.50
2022-11-09T16:12:15.410Z,39.20
2022-11-09T16:14:44.898Z,41.20
2022-11-09T16:17:13.013Z,39.43
2022-11-09T16:19:43.218Z,37.67
2022-11-09T16:22:12.554Z,39.73
2022-11-09T16:24:40.748Z,43.43
2022-11-09T16:27:17.134Z,36.90
2022-11-09T16:29:57.921Z,33.07
2022-11-09T16:32:26.052Z,31.27
2022-11-09T16:35:15.580Z,24.93
2022-11-09T16:37:42.585Z,25.37
2022-11-09T16:40:14.218Z,24.40
2022-11-09T16:42:42.578Z,23.10
2022-11-09T16:45:15.541Z,23.87
2022-11-09T16:47:47.285Z,38.30
2022-11-09T16:50:15.753Z,37.67
2022-11-09T16:52:44.761Z,39.07
2022-11-09T16:55:12.925Z,37.20
2022-11-09T16:57:41.156Z,41.27
2022-11-09T17:00:13.061Z,41.93
2022-11-09T17:02:41.188Z,36.43
2022-11-09T17:05:09.768Z,33.87
2022-11-09T17:07:42.787Z,30.63
2022-11-09T17:10:11.642Z,30.03
2022-11-09T17:12:39.779Z,30.53
2022-11-09T17:15:09.022Z,29.07
2022-11-09T17:17:38.490Z,28.53
2022-11-09T17:20:07.692Z,25.80
2022-11-09T17:22:35.792Z,24.37
2022-11-09T17:25:04.249Z,32.77
2022-11-09T17:27:32.349Z,40.87
2022-11-09T17:30:00.471Z,66.10
2022-11-09T17:32:29.449Z,33.57
2022-11-09T17:34:58.956Z,49.90
2022-11-09T17:37:28.554Z,36.17
2022-11-09T17:39:56.744Z,33.63
2022-11-09T17:42:24.954Z,41.37
2022-11-09T17:44:53.052Z,38.30
2022-11-09T17:47:21.155Z,27.70
2022-11-09T17:49:49.252Z,27.73
2022-11-09T17:52:18.764Z,34.57
2022-11-09T17:54:47.073Z,30.53
2022-11-09T17:57:15.713Z,29.07
2022-11-09T17:59:43.812Z,32.67
2022-11-09T18:02:11.991Z,31.13
2022-11-09T18:04:41.000Z,30.57
2022-11-09T18:07:09.146Z,29.63
2022-11-09T18:09:41.873Z,33.50
2022-11-09T18:12:10.659Z,33.37
2022-11-09T18:14:38.762Z,32.60
2022-11-09T18:17:06.861Z,31.27
2022-11-09T18:19:35.072Z,31.40
2022-11-09T18:22:04.870Z,31.13
2022-11-09T18:24:36.547Z,27.87
2022-11-09T18:27:06.056Z,28.93
2022-11-09T18:29:34.193Z,26.97
2022-11-09T18:32:02.317Z,26.03
2022-11-09T18:34:30.411Z,26.97
2022-11-09T18:36:58.506Z,26.73
2022-11-09T18:39:27.067Z,27.17
2022-11-09T18:41:57.043Z,25.37
2022-11-09T18:44:26.764Z,27.53
2022-11-09T18:46:54.899Z,27.50
2022-11-09T18:49:23.021Z,25.70
2022-11-09T18:51:51.136Z,24.67
2022-11-09T18:54:19.247Z,24.70
2022-11-09T18:56:47.647Z,24.23
2022-11-09T18:59:16.071Z,25.57
2022-11-09T19:01:45.581Z,24.00
2022-11-09T19:04:16.024Z,24.77
2022-11-09T19:06:44.655Z,23.67
2022-11-09T19:09:35.244Z,24.33
2022-11-09T19:12:06.635Z,28.80
2022-11-09T19:14:40.677Z,27.37
2022-11-09T19:17:13.572Z,27.27
2022-11-09T19:19:42.364Z,31.00
2022-11-09T19:22:16.977Z,36.03
2022-11-09T19:24:46.037Z,28.50
2022-11-09T19:27:14.358Z,39.67
2022-11-09T19:29:42.483Z,32.67
2022-11-09T19:32:12.006Z,37.70
2022-11-09T19:34:42.728Z,28.03
2022-11-09T19:37:11.028Z,31.47
2022-11-09T19:39:43.039Z,29.93
2022-11-09T19:42:11.614Z,29.90
2022-11-09T19:44:39.745Z,32.10
2022-11-09T19:47:07.916Z,29.77
2022-11-09T19:49:37.454Z,29.57
2022-11-09T19:52:05.800Z,30.13
2022-11-09T19:54:34.043Z,29.13
2022-11-09T19:57:02.194Z,32.20
2022-11-09T19:59:30.311Z,36.17
2022-11-09T20:01:58.439Z,32.03
2022-11-09T20:04:26.648Z,29.87
2022-11-09T20:06:56.164Z,32.83
2022-11-09T20:09:24.294Z,32.23
2022-11-09T20:12:09.707Z,30.77
2022-11-09T20:14:37.806Z,28.33
2022-11-09T20:17:06.019Z,28.03
2022-11-09T20:19:34.156Z,30.07
2022-11-09T20:22:03.650Z,27.77
2022-11-09T20:24:31.747Z,29.17
2022-11-09T20:26:59.882Z,27.60
2022-11-09T20:29:28.019Z,28.33
2022-11-09T20:31:56.139Z,29.27
2022-11-09T20:34:25.547Z,29.73
2022-11-09T20:36:53.660Z,32.83
2022-11-09T20:39:23.142Z,32.17
2022-11-09T20:41:51.231Z,36.00
2022-11-09T20:44:19.360Z,31.27
2022-11-09T20:46:47.645Z,28.97
2022-11-09T20:49:15.899Z,29.87
2022-11-09T20:51:44.041Z,28.67
2022-11-09T20:54:12.622Z,30.73
2022-11-09T20:56:42.240Z,30.37
2022-11-09T20:59:10.489Z,29.33
2022-11-09T21:01:38.947Z,27.27
2022-11-09T21:04:07.405Z,27.73
2022-11-09T21:06:35.560Z,25.00
2022-11-09T21:09:05.659Z,27.07
2022-11-09T21:11:36.969Z,27.03
2022-11-09T21:14:06.449Z,27.93
2022-11-09T21:16:34.552Z,26.23
2022-11-09T21:19:03.251Z,27.23
2022-11-09T21:21:36.307Z,26.97
2022-11-09T21:24:22.598Z,25.87
2022-11-09T21:27:08.302Z,25.23
2022-11-09T21:29:52.622Z,25.83
2022-11-09T21:32:21.477Z,26.87
2022-11-09T21:34:49.716Z,25.23
2022-11-09T21:37:18.286Z,26.63
2022-11-09T21:39:46.473Z,25.00
2022-11-09T21:42:14.885Z,24.97
2022-11-09T21:44:44.384Z,28.13
2022-11-09T21:47:12.516Z,26.27
2022-11-09T21:49:40.641Z,27.43
2022-11-09T21:52:08.760Z,27.87
2022-11-09T21:54:36.876Z,24.93
2022-11-09T21:57:05.368Z,25.63
2022-11-09T21:59:33.466Z,25.27
2022-11-09T22:02:02.942Z,24.97
2022-11-09T22:04:31.049Z,24.13
2022-11-09T22:06:59.187Z,25.50
2022-11-09T22:09:32.518Z,25.50
2022-11-09T22:12:25.597Z,23.07
2022-11-09T22:15:11.422Z,25.67
2022-11-09T22:17:41.062Z,24.63
2022-11-09T22:20:28.361Z,24.60
2022-11-09T22:22:56.520Z,24.73
2022-11-09T22:25:24.717Z,26.97
2022-11-09T22:27:52.858Z,25.87
2022-11-09T22:30:21.083Z,26.13
2022-11-09T22:32:50.650Z,28.03
2022-11-09T22:35:18.796Z,25.40
2022-11-09T22:37:46.921Z,27.87
2022-11-09T22:40:15.037Z,27.00
2022-11-09T22:42:43.130Z,26.43
2022-11-09T22:45:11.763Z,25.07
2022-11-09T22:47:39.863Z,24.03
2022-11-09T22:50:09.846Z,24.27
2022-11-09T22:52:37.933Z,25.50
2022-11-09T22:55:06.691Z,24.03
2022-11-09T22:57:37.138Z,24.77
2022-11-09T23:00:05.786Z,24.57
2022-11-09T23:02:33.897Z,23.50
2022-11-09T23:05:01.988Z,23.47
2022-11-09T23:07:31.523Z,23.20
2022-11-09T23:09:59.625Z,22.37
2022-11-09T23:12:27.749Z,20.67
2022-11-09T23:15:05.211Z,22.93
2022-11-09T23:17:51.468Z,22.60
2022-11-09T23:20:20.108Z,21.83
2022-11-09T23:22:49.791Z,23.87
2022-11-09T23:25:35.722Z,22.03
2022-11-09T23:28:03.910Z,22.80
2022-11-09T23:30:32.030Z,22.67
2022-11-09T23:33:01.896Z,23.37
2022-11-09T23:35:30.113Z,21.83
2022-11-09T23:38:04.027Z,21.50
2022-11-09T23:40:34.036Z,22.97
2022-11-09T23:43:02.904Z,22.27
2022-11-09T23:45:31.319Z,23.70
2022-11-09T23:47:59.441Z,23.97
2022-11-09T23:50:27.927Z,22.33
2022-11-09T23:52:58.210Z,22.17
2022-11-09T23:55:28.651Z,21.77
2022-11-09T23:57:57.319Z,21.30
